logo
Search for airport 
image banner adimage banner adimage banner ad
image banner ad

LKKOTV - Kotvrdovice

Located in Blansko, Czech Republic

ICAO - , IATA -

Data provided by Airmate  

General information

Coordinates: N49°21'51" E16°47'3"
Elevation is 1860 feet MSL.
 
View others Airports in South Moravian Region

Operational data

Special qualification required
Current time UTC:
Current local time:
Weather at : LKTB - Brno/Turany ( 25 km )
METAR: LKTB 171930Z 36007KT CAVOK 06/M00 Q1008 NOSIG
TAF: TAF LKTB 171100Z 1712/1812 31008KT 9999 BKN040 TEMPO 1712/1719 36012KT 7000 -SHRA BKN025TCU TEMPO 1809/1812 7000 -SHRA BKN020TCU
View NOTAMs / SUP AIP / TFR affecting this airport [VIEW]
Communications frequencies: [VIEW]

Runways:

RWY identifierQFULength (ft)Width (ft)SurfaceLDA (ft)
10103°150966GRASS1509
28283°150966GRASS1509

Airport contact information

Address: Blansko Czech Republic

Satellite view of LKKOTV